createdAt,value
2017-12-01T00:00:37.164Z,0
2017-12-01T00:01:37.196Z,0
2017-12-01T00:02:37.381Z,0
2017-12-01T00:03:37.097Z,0
2017-12-01T00:04:36.838Z,0
2017-12-01T00:05:37.067Z,0
2017-12-01T00:06:36.769Z,0
2017-12-01T00:07:36.486Z,0
2017-12-01T00:08:36.732Z,0
2017-12-01T00:09:36.978Z,0
2017-12-01T00:10:37.215Z,0
2017-12-01T00:11:36.400Z,0
2017-12-01T00:12:36.649Z,0
2017-12-01T00:13:36.887Z,0
2017-12-01T00:14:36.598Z,0
2017-12-01T00:15:36.850Z,0
2017-12-01T00:16:36.297Z,0
2017-12-01T00:17:36.273Z,0
2017-12-01T00:18:36.510Z,0
2017-12-01T00:19:36.229Z,0
2017-12-01T00:20:36.201Z,0
2017-12-01T00:21:36.451Z,0
2017-12-01T00:22:36.434Z,0
2017-12-01T00:23:36.673Z,0
2017-12-01T00:24:36.121Z,0
2017-12-01T00:25:36.373Z,0
2017-12-01T00:26:35.816Z,0
2017-12-01T00:27:36.363Z,0
2017-12-01T00:28:36.299Z,0
2017-12-01T00:29:36.275Z,0
2017-12-01T00:30:36.517Z,0
2017-12-01T00:31:36.230Z,0
2017-12-01T00:32:36.226Z,0
2017-12-01T00:33:36.201Z,0
2017-12-01T00:34:36.435Z,0
2017-12-01T00:35:35.883Z,0
2017-12-01T00:36:36.132Z,0
2017-12-01T00:37:36.102Z,0
2017-12-01T00:38:36.615Z,0
2017-12-01T00:39:36.066Z,0
2017-12-01T00:40:36.045Z,0
2017-12-01T00:41:36.553Z,0
2017-12-01T00:42:35.748Z,0
2017-12-01T00:43:36.343Z,0
2017-12-01T00:44:36.228Z,0
2017-12-01T00:45:35.944Z,0
2017-12-01T00:46:35.916Z,0
2017-12-01T00:47:35.899Z,0
2017-12-01T00:48:35.610Z,0
2017-12-01T00:49:36.113Z,0
2017-12-01T00:50:35.591Z,0
2017-12-01T00:51:36.077Z,0
2017-12-01T00:52:36.057Z,0
2017-12-01T00:53:35.769Z,0
2017-12-01T00:54:35.749Z,0
2017-12-01T00:55:35.454Z,0
2017-12-01T00:56:35.444Z,0
2017-12-01T00:57:35.412Z,0
2017-12-01T00:58:35.943Z,0
2017-12-01T00:59:35.381Z,0
2017-12-01T01:00:35.615Z,0
2017-12-01T01:01:35.594Z,0
2017-12-01T01:02:35.586Z,0
2017-12-01T01:03:35.342Z,0
2017-12-01T01:04:35.793Z,0
2017-12-01T01:05:35.775Z,0
2017-12-01T01:06:35.759Z,0
2017-12-01T01:07:35.733Z,0
2017-12-01T01:08:35.440Z,0
2017-12-01T01:09:35.163Z,0
2017-12-01T01:10:35.405Z,0
2017-12-01T01:11:35.379Z,0
2017-12-01T01:12:35.362Z,0
2017-12-01T01:13:35.128Z,0
2017-12-01T01:14:35.320Z,0
2017-12-01T01:15:35.566Z,0
2017-12-01T01:16:35.283Z,0
2017-12-01T01:17:35.253Z,0
2017-12-01T01:18:34.963Z,0
2017-12-01T01:19:35.467Z,0
2017-12-01T01:20:35.185Z,0
2017-12-01T01:21:35.174Z,0
2017-12-01T01:22:35.417Z,0
2017-12-01T01:23:35.383Z,0
2017-12-01T01:24:35.370Z,0
2017-12-01T01:25:35.088Z,0
2017-12-01T01:26:34.790Z,0
2017-12-01T01:27:34.517Z,0
2017-12-01T01:28:34.746Z,0
2017-12-01T01:29:34.993Z,0
2017-12-01T01:30:34.710Z,0
2017-12-01T01:31:34.690Z,0
2017-12-01T01:32:35.194Z,0
2017-12-01T01:33:34.652Z,0
2017-12-01T01:34:34.892Z,0
2017-12-01T01:35:34.864Z,0
2017-12-01T01:36:34.779Z,0
2017-12-01T01:37:34.554Z,0
2017-12-01T01:38:34.799Z,0
2017-12-01T01:39:34.512Z,0
2017-12-01T01:40:34.762Z,0
2017-12-01T01:41:34.736Z,0
2017-12-01T01:42:34.977Z,0
2017-12-01T01:43:34.963Z,0
2017-12-01T01:44:35.203Z,0
2017-12-01T01:45:34.658Z,0
2017-12-01T01:46:34.943Z,0
2017-12-01T01:47:34.611Z,0
2017-12-01T01:48:34.862Z,0
2017-12-01T01:49:34.571Z,0
2017-12-01T01:50:34.276Z,0
2017-12-01T01:51:34.532Z,0
2017-12-01T01:52:34.774Z,0
2017-12-01T01:53:34.474Z,0
2017-12-01T01:54:34.465Z,0
2017-12-01T01:55:34.439Z,0
2017-12-01T01:56:34.684Z,0
2017-12-01T01:57:34.726Z,0
2017-12-01T01:58:34.654Z,0
2017-12-01T01:59:34.612Z,0
2017-12-01T02:00:33.812Z,0
2017-12-01T02:01:34.308Z,0
2017-12-01T02:02:34.025Z,0
2017-12-01T02:03:34.263Z,0
2017-12-01T02:04:34.242Z,0
2017-12-01T02:05:34.519Z,0
2017-12-01T02:06:34.196Z,0
2017-12-01T02:07:33.910Z,0
2017-12-01T02:08:34.156Z,0
2017-12-01T02:09:34.397Z,0
2017-12-01T02:10:34.112Z,0
2017-12-01T02:11:34.621Z,0
2017-12-01T02:12:34.334Z,0
2017-12-01T02:13:34.307Z,0
2017-12-01T02:14:34.559Z,0
2017-12-01T02:15:34.026Z,0
2017-12-01T02:16:34.011Z,0
2017-12-01T02:17:33.967Z,0
2017-12-01T02:18:33.946Z,0
2017-12-01T02:19:34.185Z,0
2017-12-01T02:20:33.898Z,0
2017-12-01T02:21:34.159Z,0
2017-12-01T02:22:33.864Z,0
2017-12-01T02:23:33.571Z,0
2017-12-01T02:24:33.813Z,0
2017-12-01T02:25:33.803Z,0
2017-12-01T02:26:34.044Z,0
2017-12-01T02:27:33.744Z,0
2017-12-01T02:28:33.194Z,0
2017-12-01T02:29:33.435Z,0
2017-12-01T02:30:34.220Z,0
2017-12-01T02:31:33.949Z,0
2017-12-01T02:32:33.370Z,0
2017-12-01T02:33:33.360Z,0
2017-12-01T02:34:33.336Z,0
2017-12-01T02:35:34.121Z,0
2017-12-01T02:36:33.562Z,0
2017-12-01T02:37:33.532Z,0
2017-12-01T02:38:33.512Z,0
2017-12-01T02:39:33.240Z,0
2017-12-01T02:40:33.733Z,0
2017-12-01T02:41:33.185Z,0
2017-12-01T02:42:33.689Z,0
2017-12-01T02:43:33.143Z,0
2017-12-01T02:44:33.395Z,0
2017-12-01T02:45:33.362Z,0
2017-12-01T02:46:33.601Z,0
2017-12-01T02:47:33.580Z,0
2017-12-01T02:48:32.767Z,0
2017-12-01T02:49:33.284Z,0
2017-12-01T02:50:33.256Z,0
2017-12-01T02:51:33.495Z,0
2017-12-01T02:52:33.466Z,0
2017-12-01T02:53:33.451Z,0
2017-12-01T02:54:33.433Z,0
2017-12-01T02:55:32.873Z,0
2017-12-01T02:56:33.676Z,0
2017-12-01T02:57:33.681Z,0
2017-12-01T02:58:32.805Z,0
2017-12-01T02:59:33.050Z,0
2017-12-01T03:00:33.552Z,0
2017-12-01T03:01:32.736Z,0
2017-12-01T03:02:33.250Z,0
2017-12-01T03:03:32.955Z,0
2017-12-01T03:04:33.199Z,0
2017-12-01T03:05:32.916Z,0
2017-12-01T03:06:32.894Z,0
2017-12-01T03:07:32.870Z,0
2017-12-01T03:08:32.327Z,0
2017-12-01T03:09:32.833Z,0
2017-12-01T03:10:32.545Z,0
2017-12-01T03:11:33.048Z,0
2017-12-01T03:12:32.501Z,0
2017-12-01T03:13:33.001Z,0
2017-12-01T03:14:32.772Z,0
2017-12-01T03:15:32.699Z,0
2017-12-01T03:16:32.936Z,0
2017-12-01T03:17:32.911Z,0
2017-12-01T03:18:32.359Z,0
2017-12-01T03:19:33.132Z,0
2017-12-01T03:20:32.847Z,0
2017-12-01T03:21:32.296Z,0
2017-12-01T03:22:32.804Z,0
2017-12-01T03:23:32.517Z,0
2017-12-01T03:24:32.493Z,0
2017-12-01T03:25:32.471Z,0
2017-12-01T03:26:32.996Z,0
2017-12-01T03:27:32.695Z,0
2017-12-01T03:28:32.687Z,0
2017-12-01T03:29:32.643Z,0
2017-12-01T03:30:32.364Z,0
2017-12-01T03:31:32.351Z,0
2017-12-01T03:32:32.047Z,0
2017-12-01T03:33:32.291Z,0
2017-12-01T03:34:32.539Z,0
2017-12-01T03:35:31.985Z,0
2017-12-01T03:36:32.165Z,0
2017-12-01T03:37:31.670Z,0
2017-12-01T03:38:32.198Z,0
2017-12-01T03:39:32.165Z,0
2017-12-01T03:40:32.666Z,0
2017-12-01T03:41:32.106Z,0
2017-12-01T03:42:32.085Z,0
2017-12-01T03:43:32.338Z,0
2017-12-01T03:44:32.068Z,0
2017-12-01T03:45:32.014Z,0
2017-12-01T03:46:32.273Z,0
2017-12-01T03:47:32.507Z,0
2017-12-01T03:48:32.216Z,0
2017-12-01T03:49:31.931Z,0
2017-12-01T03:50:32.170Z,0
2017-12-01T03:51:31.884Z,0
2017-12-01T03:52:32.389Z,0
2017-12-01T03:53:31.837Z,0
2017-12-01T03:54:32.357Z,0
2017-12-01T03:55:32.334Z,0
2017-12-01T03:56:31.770Z,0
2017-12-01T03:57:32.006Z,0
2017-12-01T03:58:32.038Z,0
2017-12-01T03:59:31.711Z,0
2017-12-01T04:00:31.682Z,0
2017-12-01T04:01:31.921Z,0
2017-12-01T04:02:31.377Z,0
2017-12-01T04:03:31.603Z,0
2017-12-01T04:04:32.110Z,0
2017-12-01T04:05:31.297Z,0
2017-12-01T04:06:31.274Z,0
2017-12-01T04:07:31.530Z,0
2017-12-01T04:08:32.014Z,0
2017-12-01T04:09:31.740Z,0
2017-12-01T04:10:31.445Z,0
2017-12-01T04:11:31.685Z,0
2017-12-01T04:12:31.666Z,0
2017-12-01T04:13:31.377Z,0
2017-12-01T04:14:31.874Z,0
2017-12-01T04:15:31.343Z,0
2017-12-01T04:16:31.316Z,0
2017-12-01T04:17:31.278Z,0
2017-12-01T04:18:31.529Z,0
2017-12-01T04:19:31.243Z,0
2017-12-01T04:20:31.494Z,0
2017-12-01T04:21:31.455Z,0
2017-12-01T04:22:31.169Z,0
2017-12-01T04:23:31.408Z,0
2017-12-01T04:24:31.402Z,0
2017-12-01T04:25:31.353Z,0
2017-12-01T04:26:31.348Z,0
2017-12-01T04:27:31.048Z,0
2017-12-01T04:28:31.025Z,0
2017-12-01T04:29:31.022Z,0
2017-12-01T04:30:30.978Z,0
2017-12-01T04:31:31.217Z,0
2017-12-01T04:32:31.190Z,0
2017-12-01T04:33:31.178Z,0
2017-12-01T04:34:30.614Z,0
2017-12-01T04:35:30.861Z,0
2017-12-01T04:36:30.840Z,0
2017-12-01T04:37:30.818Z,0
2017-12-01T04:38:31.315Z,0
2017-12-01T04:39:31.035Z,0
2017-12-01T04:40:30.479Z,0
2017-12-01T04:41:30.453Z,0
2017-12-01T04:42:30.688Z,0
2017-12-01T04:43:30.937Z,0
2017-12-01T04:44:30.382Z,0
2017-12-01T04:45:30.354Z,0
2017-12-01T04:46:30.603Z,0
2017-12-01T04:47:30.595Z,0
2017-12-01T04:48:30.297Z,0
2017-12-01T04:49:30.262Z,0
2017-12-01T04:50:31.037Z,0
2017-12-01T04:51:31.007Z,0
2017-12-01T04:52:29.932Z,0
2017-12-01T04:53:30.174Z,0
2017-12-01T04:54:30.148Z,0
2017-12-01T04:55:30.389Z,0
2017-12-01T04:56:30.661Z,0
2017-12-01T04:57:30.612Z,0
2017-12-01T04:58:29.782Z,0
2017-12-01T04:59:30.287Z,0
2017-12-01T05:00:30.537Z,0
2017-12-01T05:01:30.250Z,0
2017-12-01T05:02:30.500Z,0
2017-12-01T05:03:30.473Z,0
2017-12-01T05:04:30.445Z,0
2017-12-01T05:05:29.888Z,0
2017-12-01T05:06:30.398Z,0
2017-12-01T05:07:30.101Z,0
2017-12-01T05:08:30.079Z,0
2017-12-01T05:09:30.330Z,0
2017-12-01T05:10:30.303Z,0
2017-12-01T05:11:30.276Z,0
2017-12-01T05:12:29.996Z,0
2017-12-01T05:13:30.240Z,0
2017-12-01T05:14:29.940Z,0
2017-12-01T05:15:30.178Z,0
2017-12-01T05:16:29.939Z,0
2017-12-01T05:17:30.136Z,0
2017-12-01T05:18:29.844Z,0
2017-12-01T05:19:30.092Z,0
2017-12-01T05:20:30.068Z,0
2017-12-01T05:21:29.780Z,0
2017-12-01T05:22:29.759Z,0
2017-12-01T05:23:29.469Z,0
2017-12-01T05:24:29.449Z,0
2017-12-01T05:25:29.421Z,0
2017-12-01T05:26:29.672Z,0
2017-12-01T05:27:29.379Z,0
2017-12-01T05:28:29.629Z,0
2017-12-01T05:29:29.861Z,0
2017-12-01T05:30:29.846Z,0
2017-12-01T05:31:29.553Z,0
2017-12-01T05:32:29.793Z,0
2017-12-01T05:33:29.239Z,0
2017-12-01T05:34:29.219Z,0
2017-12-01T05:35:29.721Z,0
2017-12-01T05:36:30.116Z,0
2017-12-01T05:37:29.404Z,0
2017-12-01T05:38:29.390Z,0
2017-12-01T05:39:29.097Z,0
2017-12-01T05:40:29.610Z,0
2017-12-01T05:41:29.049Z,0
2017-12-01T05:42:29.295Z,0
2017-12-01T05:43:29.280Z,0
2017-12-01T05:44:29.515Z,0
2017-12-01T05:45:29.492Z,0
2017-12-01T05:46:29.207Z,0
2017-12-01T05:47:29.715Z,0
2017-12-01T05:48:28.896Z,0
2017-12-01T05:49:29.399Z,0
2017-12-01T05:50:29.112Z,0
2017-12-01T05:51:29.089Z,0
2017-12-01T05:52:28.533Z,0
2017-12-01T05:53:29.575Z,0
2017-12-01T05:54:29.285Z,0
2017-12-01T05:55:28.997Z,0
2017-12-01T05:56:28.706Z,0
2017-12-01T05:57:28.680Z,0
2017-12-01T05:58:29.511Z,0
2017-12-01T05:59:29.173Z,0
2017-12-01T06:00:28.615Z,0
2017-12-01T06:01:28.861Z,0
2017-12-01T06:02:29.109Z,0
2017-12-01T06:03:29.077Z,0
2017-12-01T06:04:29.318Z,0
2017-12-01T06:05:29.035Z,0
2017-12-01T06:06:29.008Z,0
2017-12-01T06:07:28.983Z,0
2017-12-01T06:08:28.438Z,0
2017-12-01T06:09:29.207Z,0
2017-12-01T06:10:29.178Z,0
2017-12-01T06:11:29.171Z,0
2017-12-01T06:12:28.601Z,0
2017-12-01T06:13:28.846Z,0
2017-12-01T06:14:28.290Z,0
2017-12-01T06:15:28.539Z,0
2017-12-01T06:16:28.266Z,0
2017-12-01T06:17:28.764Z,0
2017-12-01T06:18:28.728Z,0
2017-12-01T06:19:28.461Z,0
2017-12-01T06:20:28.691Z,0
2017-12-01T06:21:28.942Z,0
2017-12-01T06:22:28.647Z,0
2017-12-01T06:23:28.893Z,0
2017-12-01T06:24:28.593Z,0
2017-12-01T06:25:28.573Z,0
2017-12-01T06:26:28.556Z,0
2017-12-01T06:27:28.262Z,0
2017-12-01T06:28:28.242Z,0
2017-12-01T06:29:28.613Z,0
2017-12-01T06:30:28.462Z,0
2017-12-01T06:31:28.434Z,0
2017-12-01T06:32:28.150Z,0
2017-12-01T06:33:28.393Z,0
2017-12-01T06:34:28.364Z,0
2017-12-01T06:35:27.818Z,0
2017-12-01T06:36:28.584Z,0
2017-12-01T06:37:27.779Z,0
2017-12-01T06:38:28.073Z,0
2017-12-01T06:39:28.255Z,0
2017-12-01T06:40:28.234Z,0
2017-12-01T06:41:27.961Z,0
2017-12-01T06:42:27.393Z,0
2017-12-01T06:43:27.901Z,0
2017-12-01T06:44:27.868Z,0
2017-12-01T06:45:28.114Z,0
2017-12-01T06:46:27.566Z,0
2017-12-01T06:47:27.545Z,0
2017-12-01T06:48:27.793Z,0
2017-12-01T06:49:27.766Z,0
2017-12-01T06:50:28.012Z,0
2017-12-01T06:51:28.301Z,0
2017-12-01T06:52:27.419Z,0
2017-12-01T06:53:27.927Z,0
2017-12-01T06:54:27.900Z,0
2017-12-01T06:55:27.889Z,0
2017-12-01T06:56:27.607Z,0
2017-12-01T06:57:27.579Z,0
2017-12-01T06:58:27.812Z,0
2017-12-01T06:59:27.549Z,0
2017-12-01T07:00:27.775Z,0
2017-12-01T07:01:27.773Z,0
2017-12-01T07:02:27.480Z,0
2017-12-01T07:03:27.441Z,0
2017-12-01T07:04:27.149Z,0
2017-12-01T07:05:27.120Z,0
2017-12-01T07:06:27.369Z,0
2017-12-01T07:07:27.630Z,0
2017-12-01T07:08:27.320Z,0
2017-12-01T07:09:27.561Z,0
2017-12-01T07:10:27.276Z,0
2017-12-01T07:11:27.787Z,0
2017-12-01T07:12:27.234Z,0
2017-12-01T07:13:27.473Z,0
2017-12-01T07:14:27.185Z,0
2017-12-01T07:15:27.157Z,0
2017-12-01T07:16:26.877Z,0
2017-12-01T07:17:26.588Z,0
2017-12-01T07:18:27.094Z,0
2017-12-01T07:19:27.343Z,0
2017-12-01T07:20:27.044Z,0
2017-12-01T07:21:27.284Z,0
2017-12-01T07:22:27.031Z,0
2017-12-01T07:23:27.238Z,0
2017-12-01T07:24:27.227Z,0
2017-12-01T07:25:26.936Z,0
2017-12-01T07:26:26.962Z,0
2017-12-01T07:27:27.348Z,0
2017-12-01T07:28:27.163Z,0
2017-12-01T07:29:26.585Z,0
2017-12-01T07:30:26.820Z,5
2017-12-01T07:31:26.532Z,5
2017-12-01T07:32:26.779Z,5
2017-12-01T07:33:26.746Z,5
2017-12-01T07:34:27.053Z,10
2017-12-01T07:35:26.707Z,10
2017-12-01T07:36:26.679Z,10
2017-12-01T07:37:26.656Z,15
2017-12-01T07:38:26.634Z,15
2017-12-01T07:39:26.350Z,15
2017-12-01T07:40:26.325Z,15
2017-12-01T07:41:26.834Z,15
2017-12-01T07:42:26.546Z,20
2017-12-01T07:43:26.519Z,20
2017-12-01T07:44:26.517Z,20
2017-12-01T07:45:26.746Z,20
2017-12-01T07:46:26.192Z,15
2017-12-01T07:47:26.700Z,15
2017-12-01T07:48:26.141Z,15
2017-12-01T07:49:26.646Z,15
2017-12-01T07:50:26.362Z,15
2017-12-01T07:51:26.606Z,10
2017-12-01T07:52:26.582Z,15
2017-12-01T07:53:26.307Z,15
2017-12-01T07:54:26.566Z,15
2017-12-01T07:55:26.518Z,15
2017-12-01T07:56:25.967Z,15
2017-12-01T07:57:26.746Z,15
2017-12-01T07:58:26.459Z,15
2017-12-01T07:59:25.907Z,15
2017-12-01T08:00:26.668Z,15
2017-12-01T08:01:26.125Z,15
2017-12-01T08:02:26.368Z,15
2017-12-01T08:03:26.079Z,15
2017-12-01T08:04:26.308Z,20
2017-12-01T08:05:26.298Z,20
2017-12-01T08:06:26.278Z,20
2017-12-01T08:07:25.982Z,20
2017-12-01T08:08:25.436Z,20
2017-12-01T08:09:25.933Z,20
2017-12-01T08:10:26.184Z,25
2017-12-01T08:11:25.649Z,25
2017-12-01T08:12:26.138Z,25
2017-12-01T08:13:26.158Z,25
2017-12-01T08:14:26.090Z,25
2017-12-01T08:15:25.803Z,20
2017-12-01T08:16:25.512Z,20
2017-12-01T08:17:25.752Z,20
2017-12-01T08:18:26.005Z,15
2017-12-01T08:19:25.974Z,15
2017-12-01T08:20:25.688Z,15
2017-12-01T08:21:25.411Z,15
2017-12-01T08:22:25.377Z,15
2017-12-01T08:23:25.364Z,15
2017-12-01T08:24:25.344Z,10
2017-12-01T08:25:25.578Z,15
2017-12-01T08:26:25.586Z,15
2017-12-01T08:27:25.813Z,15
2017-12-01T08:28:25.787Z,15
2017-12-01T08:29:25.760Z,20
2017-12-01T08:30:25.767Z,25
2017-12-01T08:31:25.457Z,25
2017-12-01T08:32:25.439Z,30
2017-12-01T08:33:25.664Z,30
2017-12-01T08:34:25.671Z,30
2017-12-01T08:35:25.365Z,30
2017-12-01T08:36:25.607Z,30
2017-12-01T08:37:25.357Z,40
2017-12-01T08:38:25.570Z,45
2017-12-01T08:39:25.265Z,45
2017-12-01T08:40:25.531Z,45
2017-12-01T08:41:25.220Z,40
2017-12-01T08:42:25.472Z,35
2017-12-01T08:43:25.189Z,35
2017-12-01T08:44:25.015Z,30
2017-12-01T08:45:25.144Z,30
2017-12-01T08:46:24.852Z,25
2017-12-01T08:47:24.826Z,20
2017-12-01T08:48:25.073Z,20
2017-12-01T08:49:24.789Z,20
2017-12-01T08:50:25.559Z,20
2017-12-01T08:51:25.534Z,20
2017-12-01T08:52:24.717Z,20
2017-12-01T08:53:24.704Z,25
2017-12-01T08:54:24.953Z,30
2017-12-01T08:55:24.655Z,30
2017-12-01T08:56:25.452Z,35
2017-12-01T08:57:24.879Z,35
2017-12-01T08:58:25.385Z,30
2017-12-01T08:59:24.854Z,30
2017-12-01T09:00:24.821Z,30
2017-12-01T09:01:24.528Z,25
2017-12-01T09:02:25.041Z,25
2017-12-01T09:03:24.755Z,25
2017-12-01T09:04:24.194Z,20
2017-12-01T09:05:24.706Z,20
2017-12-01T09:06:25.221Z,20
2017-12-01T09:07:24.387Z,25
2017-12-01T09:08:24.909Z,25
2017-12-01T09:09:24.615Z,25
2017-12-01T09:10:24.323Z,25
2017-12-01T09:11:24.310Z,25
2017-12-01T09:12:24.619Z,30
2017-12-01T09:13:24.794Z,30
2017-12-01T09:14:24.780Z,30
2017-12-01T09:15:24.219Z,25
2017-12-01T09:16:24.466Z,25
2017-12-01T09:17:24.230Z,20
2017-12-01T09:18:24.691Z,20
2017-12-01T09:19:24.396Z,20
2017-12-01T09:20:24.374Z,25
2017-12-01T09:21:24.616Z,25
2017-12-01T09:22:24.597Z,25
2017-12-01T09:23:24.585Z,30
2017-12-01T09:24:24.346Z,30
2017-12-01T09:25:24.000Z,30
2017-12-01T09:26:24.396Z,30
2017-12-01T09:27:24.490Z,30
2017-12-01T09:28:24.478Z,35
2017-12-01T09:29:24.456Z,35
2017-12-01T09:30:23.635Z,35
2017-12-01T09:31:24.404Z,35
2017-12-01T09:32:24.647Z,30
2017-12-01T09:33:24.356Z,30
2017-12-01T09:34:24.362Z,35
2017-12-01T09:35:24.328Z,35
2017-12-01T09:36:24.036Z,30
2017-12-01T09:37:24.221Z,30
2017-12-01T09:38:24.260Z,35
2017-12-01T09:39:23.435Z,45
2017-12-01T09:40:23.685Z,60
2017-12-01T09:41:23.921Z,60
2017-12-01T09:42:23.896Z,55
2017-12-01T09:43:23.614Z,50
2017-12-01T09:44:24.128Z,55
2017-12-01T09:45:23.846Z,60
2017-12-01T09:46:23.287Z,65
2017-12-01T09:47:23.792Z,70
2017-12-01T09:48:23.779Z,70
2017-12-01T09:49:23.757Z,75
2017-12-01T09:50:24.248Z,75
2017-12-01T09:51:23.968Z,75
2017-12-01T09:52:23.422Z,80
2017-12-01T09:53:23.665Z,85
2017-12-01T09:54:23.974Z,85
2017-12-01T09:55:23.354Z,90
2017-12-01T09:56:23.595Z,100
2017-12-01T09:57:23.583Z,125
2017-12-01T09:58:23.554Z,170
2017-12-01T09:59:23.804Z,175
2017-12-01T10:00:22.993Z,165
2017-12-01T10:01:23.500Z,165
2017-12-01T10:02:23.730Z,150
2017-12-01T10:03:23.186Z,140
2017-12-01T10:04:23.168Z,140
2017-12-01T10:05:22.869Z,140
2017-12-01T10:06:23.387Z,140
2017-12-01T10:07:22.828Z,145
2017-12-01T10:08:23.069Z,135
2017-12-01T10:09:23.050Z,135
2017-12-01T10:10:22.793Z,135
2017-12-01T10:11:23.549Z,135
2017-12-01T10:12:23.312Z,125
2017-12-01T10:13:23.502Z,120
2017-12-01T10:14:22.944Z,120
2017-12-01T10:15:23.200Z,120
2017-12-01T10:16:22.901Z,135
2017-12-01T10:17:23.410Z,135
2017-12-01T10:18:22.908Z,150
2017-12-01T10:19:23.106Z,150
2017-12-01T10:20:22.822Z,140
2017-12-01T10:21:22.801Z,130
2017-12-01T10:22:23.038Z,130
2017-12-01T10:23:23.286Z,140
2017-12-01T10:24:23.014Z,140
2017-12-01T10:25:23.247Z,135
2017-12-01T10:26:22.694Z,120
2017-12-01T10:27:23.207Z,110
2017-12-01T10:28:22.661Z,110
2017-12-01T10:29:22.646Z,110
2017-12-01T10:30:23.416Z,105
2017-12-01T10:31:22.591Z,105
2017-12-01T10:32:23.112Z,110
2017-12-01T10:33:22.563Z,120
2017-12-01T10:34:22.535Z,120
2017-12-01T10:35:23.038Z,115
2017-12-01T10:36:23.029Z,120
2017-12-01T10:37:23.053Z,120
2017-12-01T10:38:22.721Z,130
2017-12-01T10:39:22.963Z,135
2017-12-01T10:40:22.938Z,130
2017-12-01T10:41:22.386Z,130
2017-12-01T10:42:22.650Z,140
2017-12-01T10:43:22.929Z,140
2017-12-01T10:44:22.907Z,145
2017-12-01T10:45:23.107Z,135
2017-12-01T10:46:22.283Z,130
2017-12-01T10:47:22.527Z,140
2017-12-01T10:48:22.774Z,165
2017-12-01T10:49:22.225Z,150
2017-12-01T10:50:22.740Z,145
2017-12-01T10:51:22.979Z,145
2017-12-01T10:52:22.434Z,145
2017-12-01T10:53:22.145Z,155
2017-12-01T10:54:21.854Z,165
2017-12-01T10:55:22.370Z,165
2017-12-01T10:56:22.613Z,170
2017-12-01T10:57:21.799Z,175
2017-12-01T10:58:22.304Z,180
2017-12-01T10:59:22.826Z,185
2017-12-01T11:00:22.019Z,180
2017-12-01T11:01:21.991Z,180
2017-12-01T11:02:22.233Z,170
2017-12-01T11:03:22.209Z,165
2017-12-01T11:04:22.232Z,165
2017-12-01T11:05:22.434Z,180
2017-12-01T11:06:21.623Z,185
2017-12-01T11:07:22.400Z,210
2017-12-01T11:08:21.853Z,230
2017-12-01T11:09:22.359Z,210
2017-12-01T11:10:22.346Z,235
2017-12-01T11:11:22.053Z,205
2017-12-01T11:12:22.570Z,180
2017-12-01T11:13:22.349Z,190
2017-12-01T11:14:22.010Z,170
2017-12-01T11:15:22.508Z,155
2017-12-01T11:16:21.971Z,155
2017-12-01T11:17:22.203Z,165
2017-12-01T11:18:21.918Z,205
2017-12-01T11:19:21.637Z,160
2017-12-01T11:20:22.137Z,135
2017-12-01T11:21:21.870Z,145
2017-12-01T11:22:21.576Z,155
2017-12-01T11:23:21.834Z,155
2017-12-01T11:24:22.073Z,140
2017-12-01T11:25:21.793Z,145
2017-12-01T11:26:22.033Z,145
2017-12-01T11:27:21.493Z,155
2017-12-01T11:28:21.987Z,155
2017-12-01T11:29:21.446Z,135
2017-12-01T11:30:21.955Z,145
2017-12-01T11:31:21.943Z,165
2017-12-01T11:32:21.657Z,145
2017-12-01T11:33:21.641Z,140
2017-12-01T11:34:21.611Z,145
2017-12-01T11:35:21.592Z,140
2017-12-01T11:36:21.309Z,140
2017-12-01T11:37:21.228Z,140
2017-12-01T11:38:21.536Z,125
2017-12-01T11:39:21.521Z,125
2017-12-01T11:40:21.760Z,130
2017-12-01T11:41:21.475Z,140
2017-12-01T11:42:21.467Z,140
2017-12-01T11:43:21.454Z,140
2017-12-01T11:44:21.700Z,140
2017-12-01T11:45:21.663Z,140
2017-12-01T11:46:21.377Z,145
2017-12-01T11:47:21.368Z,135
2017-12-01T11:48:21.880Z,120
2017-12-01T11:49:21.856Z,120
2017-12-01T11:50:21.570Z,120
2017-12-01T11:51:21.814Z,115
2017-12-01T11:52:21.790Z,115
2017-12-01T11:53:21.266Z,110
2017-12-01T11:54:21.485Z,115
2017-12-01T11:55:21.473Z,125
2017-12-01T11:56:21.757Z,135
2017-12-01T11:57:20.640Z,145
2017-12-01T11:58:21.142Z,150
2017-12-01T11:59:21.382Z,140
2017-12-01T12:00:20.841Z,155
2017-12-01T12:01:21.357Z,160
2017-12-01T12:02:21.074Z,195
2017-12-01T12:03:21.043Z,280
2017-12-01T12:04:21.313Z,315
2017-12-01T12:05:21.279Z,320
2017-12-01T12:06:21.529Z,320
2017-12-01T12:07:20.970Z,320
2017-12-01T12:08:20.949Z,335
2017-12-01T12:09:21.462Z,335
2017-12-01T12:10:20.930Z,325
2017-12-01T12:11:21.170Z,325
2017-12-01T12:12:20.658Z,325
2017-12-01T12:13:20.862Z,330
2017-12-01T12:14:20.871Z,325
2017-12-01T12:15:21.095Z,320
2017-12-01T12:16:21.078Z,295
2017-12-01T12:17:20.814Z,315
2017-12-01T12:18:20.513Z,260
2017-12-01T12:19:21.037Z,315
2017-12-01T12:20:21.014Z,305
2017-12-01T12:21:20.733Z,290
2017-12-01T12:22:20.997Z,290
2017-12-01T12:23:20.975Z,280
2017-12-01T12:24:20.158Z,265
2017-12-01T12:25:20.416Z,225
2017-12-01T12:26:20.944Z,205
2017-12-01T12:27:20.652Z,295
2017-12-01T12:28:20.644Z,260
2017-12-01T12:29:20.894Z,235
2017-12-01T12:30:20.630Z,315
2017-12-01T12:31:20.868Z,300
2017-12-01T12:32:20.861Z,315
2017-12-01T12:33:20.684Z,250
2017-12-01T12:34:20.570Z,265
2017-12-01T12:35:20.295Z,260
2017-12-01T12:36:20.540Z,255
2017-12-01T12:37:20.535Z,245
2017-12-01T12:38:20.524Z,225
2017-12-01T12:39:20.771Z,220
2017-12-01T12:40:20.752Z,240
2017-12-01T12:41:20.481Z,260
2017-12-01T12:42:20.195Z,190
2017-12-01T12:43:20.449Z,185
2017-12-01T12:44:20.435Z,180
2017-12-01T12:45:19.895Z,175
2017-12-01T12:46:20.412Z,180
2017-12-01T12:47:20.696Z,175
2017-12-01T12:48:21.268Z,180
2017-12-01T12:49:20.377Z,170
2017-12-01T12:50:20.356Z,165
2017-12-01T12:51:20.345Z,145
2017-12-01T12:52:20.061Z,135
2017-12-01T12:53:20.308Z,125
2017-12-01T12:54:20.562Z,125
2017-12-01T12:55:20.018Z,125
2017-12-01T12:56:20.534Z,125
2017-12-01T12:57:20.787Z,130
2017-12-01T12:58:19.966Z,135
2017-12-01T12:59:20.223Z,145
2017-12-01T13:00:20.735Z,150
2017-12-01T13:01:20.460Z,150
2017-12-01T13:02:20.438Z,160
2017-12-01T13:03:20.161Z,165
2017-12-01T13:04:20.149Z,195
2017-12-01T13:05:20.122Z,210
2017-12-01T13:06:20.112Z,215
2017-12-01T13:07:20.092Z,190
2017-12-01T13:08:20.398Z,165
2017-12-01T13:09:20.067Z,140
2017-12-01T13:10:19.776Z,120
2017-12-01T13:11:19.769Z,110
2017-12-01T13:12:19.745Z,100
2017-12-01T13:13:20.056Z,95
2017-12-01T13:14:20.301Z,95
2017-12-01T13:15:20.226Z,95
2017-12-01T13:16:19.419Z,95
2017-12-01T13:17:20.456Z,95
2017-12-01T13:18:19.633Z,100
2017-12-01T13:19:20.152Z,105
2017-12-01T13:20:20.398Z,110
2017-12-01T13:21:19.590Z,115
2017-12-01T13:22:19.839Z,115
2017-12-01T13:23:19.814Z,120
2017-12-01T13:24:20.057Z,125
2017-12-01T13:25:20.304Z,125
2017-12-01T13:26:20.021Z,130
2017-12-01T13:27:19.741Z,135
2017-12-01T13:28:19.471Z,135
2017-12-01T13:29:19.966Z,135
2017-12-01T13:30:19.684Z,125
2017-12-01T13:31:19.938Z,120
2017-12-01T13:32:19.656Z,115
2017-12-01T13:33:19.899Z,115
2017-12-01T13:34:19.351Z,115
2017-12-01T13:35:19.340Z,115
2017-12-01T13:36:19.578Z,115
2017-12-01T13:37:19.774Z,115
2017-12-01T13:38:19.541Z,115
2017-12-01T13:39:19.795Z,120
2017-12-01T13:40:19.789Z,120
2017-12-01T13:41:19.487Z,110
2017-12-01T13:42:19.471Z,105
2017-12-01T13:43:19.191Z,95
2017-12-01T13:44:19.700Z,85
2017-12-01T13:45:19.680Z,85
2017-12-01T13:46:19.672Z,85
2017-12-01T13:47:19.375Z,85
2017-12-01T13:48:19.630Z,85
2017-12-01T13:49:19.076Z,85
2017-12-01T13:50:19.591Z,85
2017-12-01T13:51:19.837Z,80
2017-12-01T13:52:19.022Z,75
2017-12-01T13:53:19.863Z,75
2017-12-01T13:54:19.261Z,70
2017-12-01T13:55:18.988Z,65
2017-12-01T13:56:19.520Z,60
2017-12-01T13:57:18.943Z,60
2017-12-01T13:58:19.440Z,60
2017-12-01T13:59:18.939Z,60
2017-12-01T14:00:19.420Z,60
2017-12-01T14:01:19.392Z,60
2017-12-01T14:02:19.647Z,60
2017-12-01T14:03:19.079Z,60
2017-12-01T14:04:19.070Z,65
2017-12-01T14:05:18.788Z,65
2017-12-01T14:06:18.756Z,65
2017-12-01T14:07:19.268Z,65
2017-12-01T14:08:19.255Z,65
2017-12-01T14:09:18.434Z,60
2017-12-01T14:10:19.473Z,60
2017-12-01T14:11:18.681Z,55
2017-12-01T14:12:18.915Z,50
2017-12-01T14:13:19.427Z,50
2017-12-01T14:14:19.171Z,45
2017-12-01T14:15:19.405Z,45
2017-12-01T14:16:19.108Z,45
2017-12-01T14:17:18.809Z,40
2017-12-01T14:18:19.323Z,40
2017-12-01T14:19:18.789Z,35
2017-12-01T14:20:19.028Z,35
2017-12-01T14:21:19.004Z,35
2017-12-01T14:22:18.751Z,35
2017-12-01T14:23:18.724Z,35